createdAt,value
2019-05-10T00:01:38.764Z,11.50
2019-05-10T00:04:24.839Z,11.50
2019-05-10T00:07:11.145Z,11.40
2019-05-10T00:09:38.341Z,11.40
2019-05-10T00:12:14.954Z,11.40
2019-05-10T00:14:51.228Z,11.40
2019-05-10T00:17:20.429Z,11.40
2019-05-10T00:19:48.226Z,11.40
2019-05-10T00:22:17.079Z,11.40
2019-05-10T00:25:00.789Z,11.40
2019-05-10T00:27:14.499Z,11.40
2019-05-10T00:29:42.167Z,11.30
2019-05-10T00:32:09.827Z,11.30
2019-05-10T00:34:37.648Z,11.30
2019-05-10T00:37:05.439Z,11.30
2019-05-10T00:39:33.273Z,11.30
2019-05-10T00:42:01.036Z,11.30
2019-05-10T00:44:28.712Z,11.30
2019-05-10T00:46:56.406Z,11.30
2019-05-10T00:49:24.150Z,11.20
2019-05-10T00:51:51.801Z,11.20
2019-05-10T00:54:20.623Z,11.20
2019-05-10T00:56:48.260Z,11.20
2019-05-10T00:59:16.028Z,11.20
2019-05-10T01:01:43.654Z,11.20
2019-05-10T01:04:11.330Z,11.20
2019-05-10T01:06:39.094Z,11.20
2019-05-10T01:09:06.906Z,11.10
2019-05-10T01:11:34.568Z,11.10
2019-05-10T01:14:02.080Z,11.10
2019-05-10T01:16:29.707Z,11.10
2019-05-10T01:18:57.531Z,11.10
2019-05-10T01:21:25.340Z,11.10
2019-05-10T01:23:53.059Z,11.10
2019-05-10T01:26:22.302Z,11.10
2019-05-10T01:28:49.911Z,11.10
2019-05-10T01:31:17.835Z,11.00
2019-05-10T01:33:45.531Z,11.10
2019-05-10T01:36:13.159Z,11.00
2019-05-10T01:38:41.073Z,11.00
2019-05-10T01:41:08.734Z,11.00
2019-05-10T01:43:36.362Z,10.90
2019-05-10T01:46:04.171Z,11.00
2019-05-10T01:48:31.873Z,10.90
2019-05-10T01:50:59.502Z,10.90
2019-05-10T01:53:27.249Z,10.90
2019-05-10T01:55:54.932Z,10.90
2019-05-10T01:58:22.795Z,10.90
2019-05-10T02:00:50.486Z,10.90
2019-05-10T02:03:18.233Z,10.90
2019-05-10T02:05:45.985Z,10.80
2019-05-10T02:08:13.736Z,10.80
2019-05-10T02:10:41.390Z,10.80
2019-05-10T02:13:08.930Z,10.80
2019-05-10T02:15:37.080Z,10.70
2019-05-10T02:18:04.910Z,10.70
2019-05-10T02:20:32.584Z,10.70
2019-05-10T02:23:00.386Z,10.70
2019-05-10T02:25:28.065Z,10.70
2019-05-10T02:27:55.729Z,10.60
2019-05-10T02:30:23.603Z,10.60
2019-05-10T02:32:51.264Z,10.60
2019-05-10T02:35:19.179Z,10.60
2019-05-10T02:37:46.820Z,10.50
2019-05-10T02:40:14.630Z,10.60
2019-05-10T02:42:42.533Z,10.60
2019-05-10T02:45:10.557Z,10.60
2019-05-10T02:47:38.279Z,10.60
2019-05-10T02:50:06.224Z,10.60
2019-05-10T02:52:33.930Z,10.50
2019-05-10T02:55:02.487Z,10.60
2019-05-10T02:57:30.655Z,10.60
2019-05-10T03:00:03.432Z,10.60
2019-05-10T03:02:35.421Z,10.60
2019-05-10T03:05:03.712Z,10.60
2019-05-10T03:07:35.890Z,10.60
2019-05-10T03:10:04.456Z,10.60
2019-05-10T03:12:33.914Z,10.50
2019-05-10T03:15:03.817Z,10.50
2019-05-10T03:17:31.459Z,10.50
2019-05-10T03:20:01.620Z,10.50
2019-05-10T03:22:32.911Z,10.40
2019-05-10T03:25:00.683Z,10.50
2019-05-10T03:27:28.246Z,10.50
2019-05-10T03:29:56.046Z,10.40
2019-05-10T03:32:23.580Z,10.50
2019-05-10T03:34:51.317Z,10.50
2019-05-10T03:37:19.197Z,10.50
2019-05-10T03:39:47.345Z,10.40
2019-05-10T03:42:15.308Z,10.40
2019-05-10T03:44:43.148Z,10.40
2019-05-10T03:47:10.765Z,10.40
2019-05-10T03:49:38.451Z,10.40
2019-05-10T03:52:06.260Z,10.40
2019-05-10T03:54:33.951Z,10.30
2019-05-10T03:57:12.873Z,10.30
2019-05-10T03:59:31.191Z,10.40
2019-05-10T04:01:59.034Z,10.30
2019-05-10T04:04:26.689Z,10.30
2019-05-10T04:06:54.484Z,10.30
2019-05-10T04:09:23.187Z,10.20
2019-05-10T04:11:50.898Z,10.20
2019-05-10T04:14:18.621Z,10.20
2019-05-10T04:16:46.341Z,10.20
2019-05-10T04:19:13.989Z,10.20
2019-05-10T04:21:45.025Z,10.20
2019-05-10T04:24:12.646Z,10.20
2019-05-10T04:26:40.324Z,10.20
2019-05-10T04:29:08.162Z,10.30
2019-05-10T04:31:36.398Z,10.20
2019-05-10T04:34:04.025Z,10.30
2019-05-10T04:36:31.780Z,10.20
2019-05-10T04:38:59.486Z,10.20
2019-05-10T04:41:27.121Z,10.30
2019-05-10T04:43:54.984Z,10.30
2019-05-10T04:46:23.110Z,10.30
2019-05-10T04:48:50.887Z,10.30
2019-05-10T04:51:18.730Z,10.30
2019-05-10T04:53:46.356Z,10.30
2019-05-10T04:56:14.145Z,10.30
2019-05-10T04:58:41.874Z,10.30
2019-05-10T05:01:09.875Z,10.30
2019-05-10T05:03:37.695Z,10.40
2019-05-10T05:06:05.551Z,10.40
2019-05-10T05:08:33.321Z,10.40
2019-05-10T05:11:01.202Z,10.40
2019-05-10T05:13:29.104Z,10.40
2019-05-10T05:15:56.843Z,10.40
2019-05-10T05:18:24.532Z,10.50
2019-05-10T05:20:52.244Z,10.50
2019-05-10T05:23:19.964Z,10.60
2019-05-10T05:25:47.654Z,10.60
2019-05-10T05:28:18.384Z,10.60
2019-05-10T05:30:46.299Z,10.60
2019-05-10T05:33:14.199Z,10.60
2019-05-10T05:35:42.038Z,10.70
2019-05-10T05:38:09.835Z,10.70
2019-05-10T05:40:37.516Z,10.70
2019-05-10T05:43:08.215Z,10.70
2019-05-10T05:45:35.697Z,10.90
2019-05-10T05:48:03.527Z,10.90
2019-05-10T05:50:31.062Z,10.90
2019-05-10T05:52:59.744Z,11.00
2019-05-10T05:55:30.717Z,11.10
2019-05-10T05:57:59.268Z,11.00
2019-05-10T06:00:26.569Z,11.00
2019-05-10T06:02:54.237Z,11.00
2019-05-10T06:05:33.979Z,11.10
2019-05-10T06:07:52.458Z,11.20
2019-05-10T06:10:20.389Z,11.20
2019-05-10T06:12:50.500Z,11.20
2019-05-10T06:15:22.933Z,11.30
2019-05-10T06:17:56.153Z,11.40
2019-05-10T06:20:17.109Z,11.30
2019-05-10T06:23:05.224Z,11.40
2019-05-10T06:25:15.910Z,11.50
2019-05-10T06:27:43.736Z,11.50
2019-05-10T06:30:11.830Z,11.60
2019-05-10T06:32:40.591Z,11.60
2019-05-10T06:35:14.097Z,11.70
2019-05-10T06:37:38.338Z,11.70
2019-05-10T06:40:06.712Z,11.80
2019-05-10T06:42:36.168Z,11.60
2019-05-10T06:45:14.047Z,11.70
2019-05-10T06:47:35.178Z,11.60
2019-05-10T06:50:03.703Z,11.80
2019-05-10T06:52:31.416Z,12.00
2019-05-10T06:54:59.462Z,12.00
2019-05-10T06:57:27.303Z,12.10
2019-05-10T06:59:56.979Z,12.00
2019-05-10T07:02:26.743Z,12.20
2019-05-10T07:04:54.117Z,12.40
2019-05-10T07:07:42.734Z,12.20
2019-05-10T07:10:17.734Z,12.00
2019-05-10T07:12:21.060Z,12.10
2019-05-10T07:14:49.436Z,12.20
2019-05-10T07:17:17.302Z,12.40
2019-05-10T07:19:53.505Z,12.50
2019-05-10T07:22:14.827Z,12.30
2019-05-10T07:24:42.523Z,12.20
2019-05-10T07:27:10.298Z,12.00
2019-05-10T07:29:43.398Z,12.30
2019-05-10T07:32:07.558Z,12.40
2019-05-10T07:34:35.213Z,12.40
2019-05-10T07:37:03.138Z,12.50
2019-05-10T07:39:31.126Z,12.50
2019-05-10T07:42:00.501Z,12.60
2019-05-10T07:44:28.556Z,12.70
2019-05-10T07:46:58.527Z,12.70
2019-05-10T07:49:30.101Z,12.70
2019-05-10T07:51:55.495Z,12.60
2019-05-10T07:54:23.161Z,12.80
2019-05-10T07:56:50.911Z,12.90
2019-05-10T07:59:22.020Z,13.10
2019-05-10T08:01:49.098Z,13.10
2019-05-10T08:04:19.750Z,13.10
2019-05-10T08:06:48.643Z,13.20
2019-05-10T08:09:19.060Z,13.10
2019-05-10T08:11:48.335Z,13.10
2019-05-10T08:14:16.003Z,13.10
2019-05-10T08:16:43.726Z,13.10
2019-05-10T08:19:11.394Z,13.40
2019-05-10T08:21:39.094Z,13.50
2019-05-10T08:24:13.468Z,13.40
2019-05-10T08:26:36.379Z,13.50
2019-05-10T08:29:07.755Z,13.40
2019-05-10T08:31:40.539Z,13.50
2019-05-10T08:34:03.395Z,13.40
2019-05-10T08:36:32.188Z,13.40
2019-05-10T08:39:10.014Z,13.50
2019-05-10T08:41:32.563Z,13.70
2019-05-10T08:44:04.559Z,13.90
2019-05-10T08:46:40.074Z,13.60
2019-05-10T08:49:01.941Z,13.70
2019-05-10T08:51:29.359Z,13.70
2019-05-10T08:53:58.332Z,13.90
2019-05-10T08:56:26.273Z,14.10
2019-05-10T08:58:53.990Z,14.20
2019-05-10T09:01:29.692Z,14.10
2019-05-10T09:03:55.204Z,14.30
2019-05-10T09:06:22.074Z,14.40
2019-05-10T09:08:52.883Z,14.70
2019-05-10T09:11:19.655Z,14.70
2019-05-10T09:13:47.358Z,14.40
2019-05-10T09:16:23.725Z,14.40
2019-05-10T09:18:53.398Z,14.60
2019-05-10T09:21:22.366Z,14.80
2019-05-10T09:23:58.279Z,14.90
2019-05-10T09:26:19.677Z,15.00
2019-05-10T09:28:52.265Z,15.20
2019-05-10T09:31:22.026Z,15.40
2019-05-10T09:33:49.439Z,15.00
2019-05-10T09:36:16.580Z,14.70
2019-05-10T09:38:46.313Z,14.50
2019-05-10T09:41:13.844Z,14.60
2019-05-10T09:43:48.309Z,14.70
2019-05-10T09:46:14.191Z,14.60
2019-05-10T09:48:45.072Z,14.60
2019-05-10T09:51:13.741Z,14.50
2019-05-10T09:53:41.717Z,14.70
2019-05-10T09:56:09.702Z,14.80
2019-05-10T09:58:38.648Z,15.00
2019-05-10T10:01:14.654Z,14.90
2019-05-10T10:03:43.225Z,14.70
2019-05-10T10:06:10.779Z,14.60
2019-05-10T10:08:38.277Z,14.80
2019-05-10T10:11:11.542Z,15.20
2019-05-10T10:13:42.042Z,15.30
2019-05-10T10:16:12.610Z,15.10
2019-05-10T10:18:36.936Z,15.00
2019-05-10T10:21:04.003Z,14.80
2019-05-10T10:23:34.796Z,14.70
2019-05-10T10:26:01.504Z,15.00
2019-05-10T10:28:29.214Z,15.30
2019-05-10T10:31:03.273Z,15.30
2019-05-10T10:33:29.111Z,15.30
2019-05-10T10:36:04.737Z,15.50
2019-05-10T10:38:30.364Z,15.60
2019-05-10T10:40:57.576Z,15.70
2019-05-10T10:43:27.255Z,15.70
2019-05-10T10:45:57.218Z,15.60
2019-05-10T10:48:24.570Z,15.40
2019-05-10T10:50:55.667Z,15.40
2019-05-10T10:53:22.186Z,15.70
2019-05-10T10:55:54.438Z,15.80
2019-05-10T10:58:23.991Z,15.70
2019-05-10T11:00:51.738Z,15.50
2019-05-10T11:03:23.857Z,15.30
2019-05-10T11:05:49.170Z,15.40
2019-05-10T11:08:17.075Z,15.60
2019-05-10T11:10:44.743Z,15.80
2019-05-10T11:13:20.314Z,15.60
2019-05-10T11:15:42.219Z,16.30
2019-05-10T11:18:09.752Z,17.30
2019-05-10T11:20:42.046Z,17.30
2019-05-10T11:23:10.549Z,17.20
2019-05-10T11:25:42.770Z,17.80
2019-05-10T11:28:09.115Z,18.20
2019-05-10T11:30:36.812Z,17.80
2019-05-10T11:33:04.662Z,17.80
2019-05-10T11:35:34.629Z,17.80
2019-05-10T11:38:06.560Z,17.40
2019-05-10T11:40:34.913Z,16.70
2019-05-10T11:43:01.577Z,16.40
2019-05-10T11:45:34.494Z,16.30
2019-05-10T11:48:02.090Z,16.10
2019-05-10T11:50:34.975Z,16.00
2019-05-10T11:53:00.897Z,16.30
2019-05-10T11:55:28.488Z,16.40
2019-05-10T11:58:03.008Z,17.20
2019-05-10T12:00:31.941Z,18.60
2019-05-10T12:03:07.070Z,19.90
2019-05-10T12:07:55.146Z,22.40
2019-05-10T12:10:25.583Z,22.10
2019-05-10T12:13:06.089Z,21.10
2019-05-10T12:15:25.405Z,19.10
2019-05-10T12:17:58.998Z,18.50
2019-05-10T12:20:39.526Z,18.40
2019-05-10T12:22:53.213Z,18.30
2019-05-10T12:25:37.743Z,18.70
2019-05-10T12:26:15.903Z,21.10
2019-05-10T12:27:52.365Z,19.40
2019-05-10T12:30:21.526Z,19.60
2019-05-10T12:33:05.071Z,20.40
2019-05-10T12:35:21.326Z,20.40
2019-05-10T12:37:53.868Z,19.90
2019-05-10T12:40:18.603Z,19.00
2019-05-10T12:42:47.151Z,19.00
2019-05-10T12:45:15.282Z,18.70
2019-05-10T12:47:43.050Z,18.70
2019-05-10T12:50:11.613Z,18.90
2019-05-10T12:52:39.467Z,18.60
2019-05-10T12:55:07.330Z,19.80
2019-05-10T12:57:35.065Z,20.70
2019-05-10T13:00:06.692Z,19.80
2019-05-10T13:02:34.572Z,19.60
2019-05-10T13:05:02.544Z,20.60
2019-05-10T13:07:30.383Z,19.80
2019-05-10T13:10:04.234Z,18.40
2019-05-10T13:12:27.786Z,18.60
2019-05-10T13:14:55.525Z,19.60
2019-05-10T13:17:23.379Z,20.50
2019-05-10T13:19:52.690Z,20.80
2019-05-10T13:22:22.577Z,20.60
2019-05-10T13:24:50.190Z,19.50
2019-05-10T13:27:17.947Z,19.00
2019-05-10T13:29:52.805Z,18.80
2019-05-10T13:32:20.616Z,18.90
2019-05-10T13:34:46.407Z,19.50
2019-05-10T13:37:23.181Z,19.00
2019-05-10T13:39:43.763Z,19.10
2019-05-10T13:42:11.409Z,19.30
2019-05-10T13:44:42.916Z,19.10
2019-05-10T13:47:11.085Z,18.90
2019-05-10T13:49:38.675Z,18.80
2019-05-10T13:52:06.432Z,18.50
2019-05-10T13:54:36.189Z,18.20
2019-05-10T13:57:06.610Z,18.20
2019-05-10T13:59:34.582Z,18.70
2019-05-10T14:02:02.259Z,19.70
2019-05-10T14:04:33.875Z,20.30
2019-05-10T14:07:00.840Z,20.10
2019-05-10T14:09:28.439Z,20.20
2019-05-10T14:11:56.274Z,19.20
2019-05-10T14:14:26.767Z,18.60
2019-05-10T14:16:54.539Z,18.40
2019-05-10T14:19:23.311Z,18.20
2019-05-10T14:21:52.960Z,17.80
2019-05-10T14:24:20.696Z,17.60
2019-05-10T14:26:51.425Z,17.50
2019-05-10T14:29:19.271Z,17.50
2019-05-10T14:31:47.042Z,17.70
2019-05-10T14:34:15.706Z,17.70
2019-05-10T14:36:43.712Z,18.00
2019-05-10T14:39:11.476Z,18.80
2019-05-10T14:41:40.061Z,19.40
2019-05-10T14:44:07.963Z,19.10
2019-05-10T14:46:35.794Z,18.20
2019-05-10T14:49:09.622Z,18.10
2019-05-10T14:51:49.613Z,18.20
2019-05-10T14:54:06.685Z,18.20
2019-05-10T14:56:33.389Z,18.00
2019-05-10T14:59:01.034Z,17.80
2019-05-10T15:01:28.718Z,17.70
2019-05-10T15:03:57.546Z,17.60
2019-05-10T15:06:25.175Z,17.50
2019-05-10T15:08:52.941Z,17.50
2019-05-10T15:11:20.549Z,17.50
2019-05-10T15:13:48.249Z,17.40
2019-05-10T15:16:26.154Z,17.40
2019-05-10T15:18:46.690Z,17.30
2019-05-10T15:21:14.412Z,17.20
2019-05-10T15:23:42.103Z,17.20
2019-05-10T15:26:12.243Z,17.20
2019-05-10T15:28:42.122Z,17.20
2019-05-10T15:31:11.517Z,17.10
2019-05-10T15:33:39.240Z,17.30
2019-05-10T15:36:07.047Z,17.30
2019-05-10T15:38:40.534Z,17.40
2019-05-10T15:41:04.394Z,17.40
2019-05-10T15:43:32.042Z,17.30
2019-05-10T15:45:59.700Z,17.20
2019-05-10T15:48:27.481Z,17.20
2019-05-10T15:50:55.088Z,17.40
2019-05-10T15:53:25.470Z,17.50
2019-05-10T15:55:52.424Z,17.50
2019-05-10T15:58:20.079Z,17.60
2019-05-10T16:00:48.011Z,17.80
2019-05-10T16:03:15.677Z,18.10
2019-05-10T16:05:44.217Z,18.10
2019-05-10T16:08:13.750Z,17.90
2019-05-10T16:10:42.690Z,17.70
2019-05-10T16:13:14.556Z,17.60
2019-05-10T16:15:39.922Z,17.50
2019-05-10T16:18:07.690Z,17.50
2019-05-10T16:20:37.277Z,17.50
2019-05-10T16:23:08.763Z,17.40
2019-05-10T16:25:41.607Z,17.40
2019-05-10T16:28:05.275Z,17.40
2019-05-10T16:30:36.375Z,17.30
2019-05-10T16:33:02.797Z,17.40
2019-05-10T16:35:38.399Z,17.50
2019-05-10T16:38:00.149Z,17.60
2019-05-10T16:40:27.983Z,17.80
2019-05-10T16:42:55.712Z,18.00
2019-05-10T16:45:23.449Z,18.00
2019-05-10T16:47:51.318Z,17.80
2019-05-10T16:50:18.970Z,18.10
2019-05-10T16:52:46.662Z,18.30
2019-05-10T16:55:14.439Z,18.40
2019-05-10T16:57:42.121Z,18.10
2019-05-10T17:00:10.715Z,17.90
2019-05-10T17:02:42.020Z,18.00
2019-05-10T17:05:14.944Z,18.20
2019-05-10T17:07:39.097Z,18.10
2019-05-10T17:10:06.862Z,18.10
2019-05-10T17:12:34.729Z,18.00
2019-05-10T17:15:03.284Z,17.80
2019-05-10T17:17:36.930Z,17.70
2019-05-10T17:20:07.387Z,17.60
2019-05-10T17:22:31.597Z,17.30
2019-05-10T17:25:03.259Z,17.30
2019-05-10T17:27:29.040Z,17.30
2019-05-10T17:29:56.873Z,17.30
2019-05-10T17:32:26.682Z,17.20
2019-05-10T17:34:54.237Z,17.30
2019-05-10T17:37:22.116Z,17.30
2019-05-10T17:39:49.979Z,17.30
2019-05-10T17:42:17.781Z,17.30
2019-05-10T17:44:45.646Z,17.20
2019-05-10T17:47:13.356Z,17.20
2019-05-10T17:49:41.122Z,17.10
2019-05-10T17:52:08.930Z,17.00
2019-05-10T17:54:39.243Z,17.00
2019-05-10T17:57:10.829Z,17.00
2019-05-10T17:59:37.455Z,17.00
2019-05-10T18:02:05.190Z,16.80
2019-05-10T18:04:33.023Z,16.80
2019-05-10T18:07:00.666Z,16.80
2019-05-10T18:09:28.461Z,16.70
2019-05-10T18:11:56.095Z,16.70
2019-05-10T18:14:23.860Z,16.70
2019-05-10T18:16:51.799Z,16.60
2019-05-10T18:19:24.901Z,16.60
2019-05-10T18:21:48.998Z,16.50
2019-05-10T18:24:16.939Z,16.40
2019-05-10T18:26:44.676Z,16.30
2019-05-10T18:29:12.333Z,16.30
2019-05-10T18:31:40.108Z,16.20
2019-05-10T18:34:07.730Z,16.20
2019-05-10T18:36:51.029Z,16.10
2019-05-10T18:39:08.985Z,16.00
2019-05-10T18:41:36.346Z,15.90
2019-05-10T18:44:04.070Z,15.90
2019-05-10T18:46:31.870Z,15.90
2019-05-10T18:48:59.659Z,15.80
2019-05-10T18:51:27.427Z,15.80
2019-05-10T18:53:55.231Z,15.80
2019-05-10T18:56:25.442Z,15.70
2019-05-10T18:58:52.716Z,15.70
2019-05-10T19:01:20.470Z,15.60
2019-05-10T19:03:48.236Z,15.70
2019-05-10T19:06:16.144Z,15.70
2019-05-10T19:08:44.453Z,15.70
2019-05-10T19:11:12.192Z,15.70
2019-05-10T19:13:46.649Z,15.70
2019-05-10T19:16:09.601Z,15.70
2019-05-10T19:18:37.359Z,15.70
2019-05-10T19:21:05.362Z,15.70
2019-05-10T19:23:33.456Z,15.70
2019-05-10T19:26:01.410Z,15.70
2019-05-10T19:28:31.395Z,15.70
2019-05-10T19:31:00.437Z,15.60
2019-05-10T19:33:36.008Z,15.60
2019-05-10T19:35:58.083Z,15.60
2019-05-10T19:38:25.833Z,15.60
2019-05-10T19:40:53.583Z,15.60
2019-05-10T19:43:22.246Z,15.70
2019-05-10T19:45:57.499Z,15.60
2019-05-10T19:48:20.802Z,15.60
2019-05-10T19:50:48.486Z,15.60
2019-05-10T19:53:16.288Z,15.50
2019-05-10T19:55:44.154Z,15.50
2019-05-10T19:58:11.823Z,15.50
2019-05-10T20:00:39.389Z,15.40
2019-05-10T20:03:07.077Z,15.50
2019-05-10T20:05:34.730Z,15.50
2019-05-10T20:08:02.491Z,15.40
2019-05-10T20:10:30.424Z,15.40
2019-05-10T20:12:58.095Z,15.40
2019-05-10T20:15:26.098Z,15.40
2019-05-10T20:17:53.800Z,15.30
2019-05-10T20:20:21.645Z,15.30
2019-05-10T20:22:49.372Z,15.30
2019-05-10T20:25:17.400Z,15.30
2019-05-10T20:27:45.526Z,15.30
2019-05-10T20:30:13.683Z,15.20
2019-05-10T20:32:41.710Z,15.20
2019-05-10T20:35:09.525Z,15.10
2019-05-10T20:37:37.311Z,15.10
2019-05-10T20:40:07.527Z,15.10
2019-05-10T20:42:35.264Z,15.10
2019-05-10T20:45:08.425Z,15.10
2019-05-10T20:47:33.471Z,15.00
2019-05-10T20:50:01.629Z,15.00
2019-05-10T20:52:29.399Z,14.90
2019-05-10T20:54:57.231Z,15.00
2019-05-10T20:57:25.332Z,14.90
2019-05-10T20:59:53.162Z,15.00
2019-05-10T21:02:20.923Z,14.90
2019-05-10T21:04:48.715Z,14.90
2019-05-10T21:07:16.474Z,14.90
2019-05-10T21:09:44.510Z,14.90
2019-05-10T21:12:12.482Z,14.90
2019-05-10T21:14:40.170Z,14.90
2019-05-10T21:17:09.349Z,14.90
2019-05-10T21:19:37.147Z,14.90
2019-05-10T21:22:05.250Z,15.00
2019-05-10T21:24:33.158Z,14.90
2019-05-10T21:27:00.803Z,15.00
2019-05-10T21:29:28.704Z,14.90
2019-05-10T21:31:56.482Z,14.80
2019-05-10T21:34:24.539Z,14.80
2019-05-10T21:36:52.815Z,14.90
2019-05-10T21:39:20.614Z,14.90
2019-05-10T21:41:48.308Z,14.90
2019-05-10T21:44:16.401Z,14.90
2019-05-10T21:46:44.306Z,14.90
2019-05-10T21:49:12.216Z,14.90
2019-05-10T21:51:39.871Z,14.80
2019-05-10T21:54:07.687Z,14.70
2019-05-10T21:56:36.361Z,14.70
2019-05-10T21:59:05.060Z,14.70
2019-05-10T22:01:34.130Z,14.60
2019-05-10T22:04:03.962Z,14.60
2019-05-10T22:06:33.057Z,14.50
2019-05-10T22:09:00.764Z,14.50
2019-05-10T22:11:28.579Z,14.50
2019-05-10T22:13:57.560Z,14.50
2019-05-10T22:16:26.419Z,14.50
2019-05-10T22:19:01.853Z,14.40
2019-05-10T22:21:29.915Z,14.40
2019-05-10T22:23:57.700Z,14.40
2019-05-10T22:26:25.576Z,14.30
2019-05-10T22:28:53.175Z,14.30
2019-05-10T22:31:20.935Z,14.30
2019-05-10T22:33:48.813Z,14.20
2019-05-10T22:36:16.595Z,14.10
2019-05-10T22:38:44.364Z,14.10
2019-05-10T22:41:12.109Z,14.00
2019-05-10T22:43:39.945Z,13.90
2019-05-10T22:46:07.754Z,13.80
2019-05-10T22:48:35.627Z,13.70
2019-05-10T22:51:03.296Z,13.60
2019-05-10T22:53:30.980Z,13.60
2019-05-10T22:55:59.235Z,13.50
2019-05-10T22:58:27.121Z,13.40
2019-05-10T23:00:54.810Z,13.40
2019-05-10T23:03:24.539Z,13.30
2019-05-10T23:05:52.528Z,13.30
2019-05-10T23:08:20.360Z,13.30
2019-05-10T23:10:48.137Z,13.30
2019-05-10T23:13:15.938Z,13.20
2019-05-10T23:15:43.708Z,13.30
2019-05-10T23:18:11.316Z,13.20
2019-05-10T23:20:39.073Z,13.20
2019-05-10T23:23:06.866Z,13.20
2019-05-10T23:25:34.565Z,13.20
2019-05-10T23:28:02.315Z,13.10
2019-05-10T23:30:30.238Z,13.10
2019-05-10T23:32:57.959Z,13.10
2019-05-10T23:35:28.548Z,13.10
2019-05-10T23:37:56.407Z,13.10
2019-05-10T23:40:24.129Z,13.00
2019-05-10T23:42:54.437Z,13.10
2019-05-10T23:45:22.209Z,13.00
2019-05-10T23:47:49.894Z,13.00
2019-05-10T23:50:17.697Z,13.00
2019-05-10T23:52:45.643Z,13.00
2019-05-10T23:55:13.324Z,13.00
2019-05-10T23:57:40.952Z,13.00
